sensor_id;sensor_type;location;lat;lon;timestamp;pressure;altitude;pressure_sealevel;temperature;humidity
32747;BME280;19118;50.860;13.662;2024-02-26T00:02:14;95236.66;;;0.14;100.00
32747;BME280;19118;50.860;13.662;2024-02-26T00:07:15;95236.84;;;0.13;100.00
32747;BME280;19118;50.860;13.662;2024-02-26T00:12:15;95244.06;;;0.03;100.00
32747;BME280;19118;50.860;13.662;2024-02-26T00:17:16;95240.72;;;-0.06;100.00
32747;BME280;19118;50.860;13.662;2024-02-26T00:22:16;95227.13;;;-0.08;100.00
32747;BME280;19118;50.860;13.662;2024-02-26T00:27:16;95229.13;;;0.05;100.00
32747;BME280;19118;50.860;13.662;2024-02-26T00:32:17;95227.69;;;0.02;100.00
32747;BME280;19118;50.860;13.662;2024-02-26T00:37:17;95223.88;;;-0.10;100.00
32747;BME280;19118;50.860;13.662;2024-02-26T00:42:17;95219.75;;;-0.19;100.00
32747;BME280;19118;50.860;13.662;2024-02-26T00:47:18;95229.81;;;-0.24;100.00
32747;BME280;19118;50.860;13.662;2024-02-26T00:52:18;95221.41;;;-0.26;100.00
32747;BME280;19118;50.860;13.662;2024-02-26T00:57:18;95222.75;;;-0.31;100.00
32747;BME280;19118;50.860;13.662;2024-02-26T01:02:18;95212.72;;;-0.34;100.00
32747;BME280;19118;50.860;13.662;2024-02-26T01:07:19;95201.69;;;-0.36;100.00
32747;BME280;19118;50.860;13.662;2024-02-26T01:12:19;95200.06;;;-0.37;100.00
32747;BME280;19118;50.860;13.662;2024-02-26T01:17:20;95180.41;;;-0.31;100.00
32747;BME280;19118;50.860;13.662;2024-02-26T01:22:20;95185.97;;;-0.19;100.00
32747;BME280;19118;50.860;13.662;2024-02-26T01:27:20;95165.81;;;-0.17;100.00
32747;BME280;19118;50.860;13.662;2024-02-26T01:32:21;95168.78;;;-0.20;100.00
32747;BME280;19118;50.860;13.662;2024-02-26T01:37:21;95150.25;;;-0.17;100.00
32747;BME280;19118;50.860;13.662;2024-02-26T01:42:21;95150.59;;;-0.20;100.00
32747;BME280;19118;50.860;13.662;2024-02-26T01:47:22;95132.25;;;-0.19;100.00
32747;BME280;19118;50.860;13.662;2024-02-26T01:52:23;95123.00;;;-0.21;100.00
32747;BME280;19118;50.860;13.662;2024-02-26T01:57:23;95118.81;;;-0.22;100.00
32747;BME280;19118;50.860;13.662;2024-02-26T02:02:23;95108.69;;;-0.17;100.00
32747;BME280;19118;50.860;13.662;2024-02-26T02:07:24;95102.94;;;-0.13;100.00
32747;BME280;19118;50.860;13.662;2024-02-26T02:12:24;95091.56;;;-0.12;100.00
32747;BME280;19118;50.860;13.662;2024-02-26T02:17:26;95087.91;;;-0.17;100.00
32747;BME280;19118;50.860;13.662;2024-02-26T02:22:27;95084.75;;;-0.13;100.00
32747;BME280;19118;50.860;13.662;2024-02-26T02:27:28;95084.69;;;-0.19;100.00
32747;BME280;19118;50.860;13.662;2024-02-26T02:32:29;95080.66;;;-0.22;100.00
32747;BME280;19118;50.860;13.662;2024-02-26T02:37:29;95083.25;;;-0.22;100.00
32747;BME280;19118;50.860;13.662;2024-02-26T02:42:29;95076.88;;;-0.19;100.00
32747;BME280;19118;50.860;13.662;2024-02-26T02:47:30;95069.91;;;-0.04;100.00
32747;BME280;19118;50.860;13.662;2024-02-26T02:52:30;95070.53;;;-0.02;100.00
32747;BME280;19118;50.860;13.662;2024-02-26T02:57:31;95064.78;;;0.17;100.00
32747;BME280;19118;50.860;13.662;2024-02-26T03:02:32;95062.09;;;0.25;100.00
32747;BME280;19118;50.860;13.662;2024-02-26T03:07:32;95072.22;;;0.20;100.00
32747;BME280;19118;50.860;13.662;2024-02-26T03:12:34;95067.63;;;0.22;100.00
32747;BME280;19118;50.860;13.662;2024-02-26T03:17:34;95051.50;;;0.27;100.00
32747;BME280;19118;50.860;13.662;2024-02-26T03:22:34;95070.13;;;0.31;100.00
32747;BME280;19118;50.860;13.662;2024-02-26T03:27:35;95064.84;;;0.39;100.00
32747;BME280;19118;50.860;13.662;2024-02-26T03:32:35;95071.41;;;0.35;100.00
32747;BME280;19118;50.860;13.662;2024-02-26T03:37:35;95057.56;;;0.49;100.00
32747;BME280;19118;50.860;13.662;2024-02-26T03:42:36;95061.50;;;0.45;100.00
32747;BME280;19118;50.860;13.662;2024-02-26T03:47:37;95068.06;;;0.41;100.00
32747;BME280;19118;50.860;13.662;2024-02-26T03:52:38;95064.38;;;0.50;100.00
32747;BME280;19118;50.860;13.662;2024-02-26T03:57:39;95053.38;;;0.69;100.00
32747;BME280;19118;50.860;13.662;2024-02-26T04:02:39;95042.44;;;0.95;100.00
32747;BME280;19118;50.860;13.662;2024-02-26T04:07:40;95029.81;;;1.20;100.00
32747;BME280;19118;50.860;13.662;2024-02-26T04:12:41;95016.19;;;1.46;100.00
32747;BME280;19118;50.860;13.662;2024-02-26T04:17:42;95008.31;;;1.67;100.00
32747;BME280;19118;50.860;13.662;2024-02-26T04:22:42;95005.72;;;1.67;100.00
32747;BME280;19118;50.860;13.662;2024-02-26T04:27:43;95016.47;;;1.58;100.00
32747;BME280;19118;50.860;13.662;2024-02-26T04:32:43;95016.03;;;1.48;100.00
32747;BME280;19118;50.860;13.662;2024-02-26T04:37:43;95024.06;;;1.53;100.00
32747;BME280;19118;50.860;13.662;2024-02-26T04:42:44;95011.31;;;1.64;100.00
32747;BME280;19118;50.860;13.662;2024-02-26T04:47:44;95015.72;;;1.64;100.00
32747;BME280;19118;50.860;13.662;2024-02-26T04:52:44;95016.31;;;1.66;100.00
32747;BME280;19118;50.860;13.662;2024-02-26T04:57:45;95017.56;;;1.70;100.00
32747;BME280;19118;50.860;13.662;2024-02-26T05:02:45;95012.53;;;1.68;100.00
32747;BME280;19118;50.860;13.662;2024-02-26T05:07:46;95008.44;;;1.87;100.00
32747;BME280;19118;50.860;13.662;2024-02-26T05:12:46;95011.50;;;1.97;100.00
32747;BME280;19118;50.860;13.662;2024-02-26T05:17:46;94977.97;;;2.42;100.00
32747;BME280;19118;50.860;13.662;2024-02-26T05:22:47;94969.19;;;2.70;100.00
32747;BME280;19118;50.860;13.662;2024-02-26T05:27:48;94951.13;;;2.81;100.00
32747;BME280;19118;50.860;13.662;2024-02-26T05:32:48;94960.16;;;2.79;100.00
32747;BME280;19118;50.860;13.662;2024-02-26T05:37:48;94963.97;;;2.70;100.00
32747;BME280;19118;50.860;13.662;2024-02-26T05:42:49;94968.97;;;2.51;100.00
32747;BME280;19118;50.860;13.662;2024-02-26T05:47:49;94978.16;;;2.47;100.00
32747;BME280;19118;50.860;13.662;2024-02-26T05:52:50;94992.00;;;2.41;100.00
32747;BME280;19118;50.860;13.662;2024-02-26T05:57:50;94994.03;;;2.46;100.00
32747;BME280;19118;50.860;13.662;2024-02-26T06:02:50;94996.88;;;2.51;100.00
32747;BME280;19118;50.860;13.662;2024-02-26T06:07:51;95001.06;;;2.58;100.00
32747;BME280;19118;50.860;13.662;2024-02-26T06:12:51;95003.28;;;2.55;100.00
32747;BME280;19118;50.860;13.662;2024-02-26T06:17:51;94998.91;;;2.62;100.00
32747;BME280;19118;50.860;13.662;2024-02-26T06:22:52;94989.09;;;2.84;100.00
32747;BME280;19118;50.860;13.662;2024-02-26T06:27:52;94987.69;;;2.88;100.00
32747;BME280;19118;50.860;13.662;2024-02-26T06:32:52;94981.28;;;2.97;100.00
32747;BME280;19118;50.860;13.662;2024-02-26T06:37:53;94982.09;;;3.17;100.00
32747;BME280;19118;50.860;13.662;2024-02-26T06:42:53;94959.53;;;3.49;100.00
32747;BME280;19118;50.860;13.662;2024-02-26T06:47:53;94958.69;;;3.75;100.00
32747;BME280;19118;50.860;13.662;2024-02-26T06:52:55;94944.09;;;4.06;100.00
32747;BME280;19118;50.860;13.662;2024-02-26T06:57:56;94937.31;;;4.36;100.00
32747;BME280;19118;50.860;13.662;2024-02-26T07:02:56;94941.19;;;4.65;100.00
32747;BME280;19118;50.860;13.662;2024-02-26T07:07:56;94940.34;;;4.96;100.00
32747;BME280;19118;50.860;13.662;2024-02-26T07:12:57;94943.38;;;5.18;100.00
32747;BME280;19118;50.860;13.662;2024-02-26T07:17:57;94959.50;;;5.22;100.00
32747;BME280;19118;50.860;13.662;2024-02-26T07:23:03;94966.34;;;5.23;100.00
32747;BME280;19118;50.860;13.662;2024-02-26T07:28:03;94975.03;;;5.17;100.00
32747;BME280;19118;50.860;13.662;2024-02-26T07:33:04;94978.31;;;5.37;100.00
32747;BME280;19118;50.860;13.662;2024-02-26T07:38:05;94995.38;;;5.46;100.00
32747;BME280;19118;50.860;13.662;2024-02-26T07:43:05;94986.22;;;5.55;100.00
32747;BME280;19118;50.860;13.662;2024-02-26T07:48:06;94998.06;;;5.83;100.00
32747;BME280;19118;50.860;13.662;2024-02-26T07:53:06;95006.94;;;5.82;100.00
32747;BME280;19118;50.860;13.662;2024-02-26T07:58:07;95010.16;;;5.84;100.00
32747;BME280;19118;50.860;13.662;2024-02-26T08:03:07;95027.56;;;6.03;100.00
32747;BME280;19118;50.860;13.662;2024-02-26T08:08:08;95042.13;;;6.18;100.00
32747;BME280;19118;50.860;13.662;2024-02-26T08:13:08;95045.72;;;6.23;100.00
32747;BME280;19118;50.860;13.662;2024-02-26T08:18:09;95059.19;;;6.45;100.00
32747;BME280;19118;50.860;13.662;2024-02-26T08:23:09;95070.19;;;6.72;100.00
32747;BME280;19118;50.860;13.662;2024-02-26T08:28:09;95080.72;;;7.02;100.00
32747;BME280;19118;50.860;13.662;2024-02-26T08:33:13;95102.16;;;7.17;100.00
32747;BME280;19118;50.860;13.662;2024-02-26T08:38:13;95126.47;;;7.43;100.00
32747;BME280;19118;50.860;13.662;2024-02-26T08:43:14;95150.31;;;7.59;100.00
32747;BME280;19118;50.860;13.662;2024-02-26T08:48:14;95177.59;;;7.47;100.00
32747;BME280;19118;50.860;13.662;2024-02-26T08:53:16;95192.94;;;7.50;100.00
32747;BME280;19118;50.860;13.662;2024-02-26T08:58:16;95197.34;;;7.68;100.00
32747;BME280;19118;50.860;13.662;2024-02-26T09:03:20;95218.22;;;7.51;100.00
32747;BME280;19118;50.860;13.662;2024-02-26T09:08:20;95210.81;;;7.59;100.00
32747;BME280;19118;50.860;13.662;2024-02-26T09:13:22;95218.47;;;7.91;100.00
32747;BME280;19118;50.860;13.662;2024-02-26T09:18:23;95254.31;;;8.04;100.00
32747;BME280;19118;50.860;13.662;2024-02-26T09:23:23;95260.78;;;8.20;100.00
32747;BME280;19118;50.860;13.662;2024-02-26T09:28:24;95264.22;;;8.62;100.00
32747;BME280;19118;50.860;13.662;2024-02-26T09:33:24;95301.00;;;8.68;100.00
32747;BME280;19118;50.860;13.662;2024-02-26T09:38:24;95321.66;;;9.07;100.00
32747;BME280;19118;50.860;13.662;2024-02-26T09:43:26;95352.50;;;9.29;100.00
32747;BME280;19118;50.860;13.662;2024-02-26T09:48:31;95385.63;;;9.49;100.00
32747;BME280;19118;50.860;13.662;2024-02-26T09:53:32;95401.91;;;9.81;100.00
32747;BME280;19118;50.860;13.662;2024-02-26T09:58:34;95434.63;;;9.80;100.00
32747;BME280;19118;50.860;13.662;2024-02-26T10:03:38;95448.84;;;10.02;100.00
32747;BME280;19118;50.860;13.662;2024-02-26T10:08:41;95461.91;;;10.20;100.00
32747;BME280;19118;50.860;13.662;2024-02-26T10:13:41;95479.38;;;10.22;100.00
32747;BME280;19118;50.860;13.662;2024-02-26T10:18:49;95504.38;;;10.07;100.00
32747;BME280;19118;50.860;13.662;2024-02-26T10:23:49;95492.91;;;10.13;100.00
32747;BME280;19118;50.860;13.662;2024-02-26T10:28:50;95497.84;;;10.45;100.00
32747;BME280;19118;50.860;13.662;2024-02-26T10:33:55;95510.13;;;10.16;100.00
32747;BME280;19118;50.860;13.662;2024-02-26T10:38:56;95520.03;;;9.97;100.00
32747;BME280;19118;50.860;13.662;2024-02-26T10:43:56;95504.41;;;9.84;100.00
32747;BME280;19118;50.860;13.662;2024-02-26T10:48:56;95508.66;;;10.32;100.00
32747;BME280;19118;50.860;13.662;2024-02-26T10:53:58;95519.22;;;10.43;100.00
32747;BME280;19118;50.860;13.662;2024-02-26T10:59:01;95553.94;;;10.75;100.00
32747;BME280;19118;50.860;13.662;2024-02-26T11:04:02;95561.63;;;10.89;100.00
32747;BME280;19118;50.860;13.662;2024-02-26T11:09:03;95571.38;;;11.00;100.00
32747;BME280;19118;50.860;13.662;2024-02-26T11:14:03;95568.53;;;11.18;100.00
32747;BME280;19118;50.860;13.662;2024-02-26T11:19:06;95559.63;;;11.36;100.00
32747;BME280;19118;50.860;13.662;2024-02-26T11:24:12;95561.34;;;11.59;100.00
32747;BME280;19118;50.860;13.662;2024-02-26T11:29:17;95569.91;;;11.66;100.00
32747;BME280;19118;50.860;13.662;2024-02-26T11:34:20;95565.31;;;12.07;100.00
32747;BME280;19118;50.860;13.662;2024-02-26T11:39:21;95584.84;;;12.01;100.00
32747;BME280;19118;50.860;13.662;2024-02-26T11:44:29;95583.94;;;11.95;100.00
32747;BME280;19118;50.860;13.662;2024-02-26T11:49:32;95592.19;;;11.82;100.00
32747;BME280;19118;50.860;13.662;2024-02-26T11:54:51;95592.25;;;11.70;100.00
32747;BME280;19118;50.860;13.662;2024-02-26T11:59:55;95595.94;;;11.69;100.00
32747;BME280;19118;50.860;13.662;2024-02-26T12:04:56;95598.69;;;11.46;100.00
32747;BME280;19118;50.860;13.662;2024-02-26T12:10:14;95599.34;;;11.81;100.00
32747;BME280;19118;50.860;13.662;2024-02-26T12:15:15;95609.47;;;12.01;100.00
32747;BME280;19118;50.860;13.662;2024-02-26T12:20:17;95626.94;;;11.85;100.00
32747;BME280;19118;50.860;13.662;2024-02-26T12:25:22;95625.28;;;11.96;100.00
32747;BME280;19118;50.860;13.662;2024-02-26T12:30:24;95628.75;;;12.13;100.00
32747;BME280;19118;50.860;13.662;2024-02-26T12:35:26;95632.13;;;12.26;100.00
32747;BME280;19118;50.860;13.662;2024-02-26T12:40:27;95641.25;;;12.51;100.00
32747;BME280;19118;50.860;13.662;2024-02-26T12:45:28;95634.66;;;12.54;100.00
32747;BME280;19118;50.860;13.662;2024-02-26T12:50:28;95641.75;;;12.48;100.00
32747;BME280;19118;50.860;13.662;2024-02-26T12:55:29;95642.72;;;12.26;100.00
32747;BME280;19118;50.860;13.662;2024-02-26T13:00:31;95636.44;;;11.98;100.00
32747;BME280;19118;50.860;13.662;2024-02-26T13:05:32;95639.31;;;11.80;100.00
32747;BME280;19118;50.860;13.662;2024-02-26T13:10:33;95638.50;;;11.79;100.00
32747;BME280;19118;50.860;13.662;2024-02-26T13:15:34;95648.47;;;11.89;100.00
32747;BME280;19118;50.860;13.662;2024-02-26T13:20:35;95661.97;;;12.04;100.00
32747;BME280;19118;50.860;13.662;2024-02-26T13:25:36;95666.03;;;12.23;100.00
32747;BME280;19118;50.860;13.662;2024-02-26T13:30:39;95671.28;;;11.90;100.00
32747;BME280;19118;50.860;13.662;2024-02-26T13:35:39;95682.69;;;11.90;100.00
32747;BME280;19118;50.860;13.662;2024-02-26T13:40:40;95691.00;;;11.82;100.00
32747;BME280;19118;50.860;13.662;2024-02-26T13:45:40;95693.75;;;11.76;100.00
32747;BME280;19118;50.860;13.662;2024-02-26T13:50:42;95693.72;;;11.59;100.00
32747;BME280;19118;50.860;13.662;2024-02-26T13:55:45;95687.84;;;11.57;100.00
32747;BME280;19118;50.860;13.662;2024-02-26T14:00:46;95697.91;;;11.31;100.00
32747;BME280;19118;50.860;13.662;2024-02-26T14:05:47;95688.69;;;11.46;100.00
32747;BME280;19118;50.860;13.662;2024-02-26T14:10:48;95702.59;;;11.53;100.00
32747;BME280;19118;50.860;13.662;2024-02-26T14:15:48;95700.25;;;11.68;100.00
32747;BME280;19118;50.860;13.662;2024-02-26T14:20:49;95704.47;;;11.41;100.00
32747;BME280;19118;50.860;13.662;2024-02-26T14:25:49;95710.91;;;11.45;100.00
32747;BME280;19118;50.860;13.662;2024-02-26T14:30:49;95715.66;;;11.71;100.00
32747;BME280;19118;50.860;13.662;2024-02-26T14:35:50;95730.25;;;11.74;100.00
32747;BME280;19118;50.860;13.662;2024-02-26T14:40:50;95742.78;;;11.50;100.00
32747;BME280;19118;50.860;13.662;2024-02-26T14:45:50;95747.84;;;11.51;100.00
32747;BME280;19118;50.860;13.662;2024-02-26T14:50:50;95760.16;;;11.46;100.00
32747;BME280;19118;50.860;13.662;2024-02-26T14:55:51;95774.63;;;11.55;100.00
32747;BME280;19118;50.860;13.662;2024-02-26T15:00:51;95782.00;;;11.53;100.00
32747;BME280;19118;50.860;13.662;2024-02-26T15:05:52;95779.06;;;11.37;100.00
32747;BME280;19118;50.860;13.662;2024-02-26T15:10:52;95777.44;;;11.36;100.00
32747;BME280;19118;50.860;13.662;2024-02-26T15:15:53;95774.81;;;11.13;100.00
32747;BME280;19118;50.860;13.662;2024-02-26T15:20:53;95762.97;;;11.04;100.00
32747;BME280;19118;50.860;13.662;2024-02-26T15:25:54;95766.31;;;10.99;100.00
32747;BME280;19118;50.860;13.662;2024-02-26T15:30:54;95756.88;;;10.92;100.00
32747;BME280;19118;50.860;13.662;2024-02-26T15:35:55;95766.47;;;10.51;100.00
32747;BME280;19118;50.860;13.662;2024-02-26T15:40:55;95765.31;;;10.35;100.00
32747;BME280;19118;50.860;13.662;2024-02-26T15:45:55;95769.59;;;10.18;100.00
32747;BME280;19118;50.860;13.662;2024-02-26T15:50:55;95768.69;;;9.94;100.00
32747;BME280;19118;50.860;13.662;2024-02-26T15:55:56;95767.72;;;9.77;100.00
32747;BME280;19118;50.860;13.662;2024-02-26T16:00:56;95757.69;;;9.67;100.00
32747;BME280;19118;50.860;13.662;2024-02-26T16:05:56;95759.50;;;9.67;100.00
32747;BME280;19118;50.860;13.662;2024-02-26T16:10:57;95752.34;;;9.55;100.00
32747;BME280;19118;50.860;13.662;2024-02-26T16:16:02;95747.97;;;9.31;100.00
32747;BME280;19118;50.860;13.662;2024-02-26T16:21:03;95751.03;;;9.10;100.00
32747;BME280;19118;50.860;13.662;2024-02-26T16:26:04;95740.31;;;8.86;100.00
32747;BME280;19118;50.860;13.662;2024-02-26T16:31:04;95744.19;;;8.59;100.00
32747;BME280;19118;50.860;13.662;2024-02-26T16:36:05;95733.47;;;8.29;100.00
32747;BME280;19118;50.860;13.662;2024-02-26T16:41:05;95728.44;;;7.96;100.00
32747;BME280;19118;50.860;13.662;2024-02-26T16:46:05;95722.56;;;7.62;100.00
32747;BME280;19118;50.860;13.662;2024-02-26T16:51:06;95716.19;;;7.38;100.00
32747;BME280;19118;50.860;13.662;2024-02-26T16:56:09;95708.53;;;7.30;100.00
32747;BME280;19118;50.860;13.662;2024-02-26T17:01:10;95697.38;;;7.35;100.00
32747;BME280;19118;50.860;13.662;2024-02-26T17:06:10;95699.78;;;7.43;100.00
32747;BME280;19118;50.860;13.662;2024-02-26T17:11:10;95718.97;;;7.50;100.00
32747;BME280;19118;50.860;13.662;2024-02-26T17:16:10;95718.16;;;7.49;100.00
32747;BME280;19118;50.860;13.662;2024-02-26T17:21:16;95722.63;;;7.49;100.00
32747;BME280;19118;50.860;13.662;2024-02-26T17:26:20;95730.50;;;7.49;100.00
32747;BME280;19118;50.860;13.662;2024-02-26T17:31:21;95732.28;;;7.55;100.00
32747;BME280;19118;50.860;13.662;2024-02-26T17:36:21;95739.91;;;7.70;100.00
32747;BME280;19118;50.860;13.662;2024-02-26T17:41:22;95753.06;;;7.70;100.00
32747;BME280;19118;50.860;13.662;2024-02-26T17:46:22;95752.25;;;7.69;100.00
32747;BME280;19118;50.860;13.662;2024-02-26T17:51:23;95756.50;;;7.70;100.00
32747;BME280;19118;50.860;13.662;2024-02-26T17:56:23;95761.94;;;7.75;100.00
32747;BME280;19118;50.860;13.662;2024-02-26T18:01:23;95767.78;;;7.77;100.00
32747;BME280;19118;50.860;13.662;2024-02-26T18:06:24;95766.63;;;7.73;100.00
32747;BME280;19118;50.860;13.662;2024-02-26T18:11:24;95765.75;;;7.79;100.00
32747;BME280;19118;50.860;13.662;2024-02-26T18:16:24;95763.75;;;7.81;100.00
32747;BME280;19118;50.860;13.662;2024-02-26T18:21:25;95762.75;;;7.76;100.00
32747;BME280;19118;50.860;13.662;2024-02-26T18:26:26;95751.28;;;7.64;100.00
32747;BME280;19118;50.860;13.662;2024-02-26T18:31:28;95745.28;;;7.50;100.00
32747;BME280;19118;50.860;13.662;2024-02-26T18:36:28;95755.44;;;7.40;100.00
32747;BME280;19118;50.860;13.662;2024-02-26T18:41:28;95748.41;;;7.20;100.00
32747;BME280;19118;50.860;13.662;2024-02-26T18:46:29;95742.16;;;7.08;100.00
32747;BME280;19118;50.860;13.662;2024-02-26T18:51:29;95740.97;;;6.97;100.00
32747;BME280;19118;50.860;13.662;2024-02-26T18:56:29;95726.06;;;6.85;100.00
32747;BME280;19118;50.860;13.662;2024-02-26T19:01:30;95731.13;;;6.66;100.00
32747;BME280;19118;50.860;13.662;2024-02-26T19:06:32;95731.75;;;6.42;100.00
32747;BME280;19118;50.860;13.662;2024-02-26T19:11:35;95718.81;;;6.07;100.00
32747;BME280;19118;50.860;13.662;2024-02-26T19:16:36;95715.91;;;5.76;100.00
32747;BME280;19118;50.860;13.662;2024-02-26T19:21:36;95710.22;;;5.46;100.00
32747;BME280;19118;50.860;13.662;2024-02-26T19:26:39;95701.22;;;5.14;100.00
32747;BME280;19118;50.860;13.662;2024-02-26T19:31:40;95698.72;;;4.92;100.00
32747;BME280;19118;50.860;13.662;2024-02-26T19:36:40;95692.81;;;4.77;100.00
32747;BME280;19118;50.860;13.662;2024-02-26T19:41:41;95693.28;;;4.59;100.00
32747;BME280;19118;50.860;13.662;2024-02-26T19:46:41;95699.00;;;4.42;100.00
32747;BME280;19118;50.860;13.662;2024-02-26T19:51:41;95697.91;;;4.29;100.00
32747;BME280;19118;50.860;13.662;2024-02-26T19:56:42;95712.56;;;4.24;100.00
32747;BME280;19118;50.860;13.662;2024-02-26T20:01:43;95708.34;;;4.23;100.00
32747;BME280;19118;50.860;13.662;2024-02-26T20:06:44;95732.09;;;4.21;100.00
32747;BME280;19118;50.860;13.662;2024-02-26T20:11:44;95734.44;;;4.16;100.00
32747;BME280;19118;50.860;13.662;2024-02-26T20:16:45;95720.84;;;4.27;100.00
32747;BME280;19118;50.860;13.662;2024-02-26T20:21:45;95724.13;;;4.36;100.00
32747;BME280;19118;50.860;13.662;2024-02-26T20:26:45;95726.44;;;4.46;100.00
32747;BME280;19118;50.860;13.662;2024-02-26T20:31:49;95725.91;;;4.57;100.00
32747;BME280;19118;50.860;13.662;2024-02-26T20:36:50;95717.91;;;4.65;100.00
32747;BME280;19118;50.860;13.662;2024-02-26T20:41:50;95726.72;;;4.64;100.00
32747;BME280;19118;50.860;13.662;2024-02-26T20:46:50;95729.88;;;4.53;100.00
32747;BME280;19118;50.860;13.662;2024-02-26T20:51:55;95732.41;;;4.39;100.00
32747;BME280;19118;50.860;13.662;2024-02-26T20:56:56;95739.03;;;4.35;100.00
32747;BME280;19118;50.860;13.662;2024-02-26T21:01:57;95748.63;;;4.28;100.00
32747;BME280;19118;50.860;13.662;2024-02-26T21:06:57;95744.16;;;4.22;100.00
32747;BME280;19118;50.860;13.662;2024-02-26T21:11:57;95742.16;;;4.24;100.00
32747;BME280;19118;50.860;13.662;2024-02-26T21:16:58;95733.19;;;4.33;100.00
32747;BME280;19118;50.860;13.662;2024-02-26T21:21:58;95728.84;;;4.47;100.00
32747;BME280;19118;50.860;13.662;2024-02-26T21:26:59;95724.63;;;4.46;100.00
32747;BME280;19118;50.860;13.662;2024-02-26T21:31:59;95732.06;;;4.43;100.00
32747;BME280;19118;50.860;13.662;2024-02-26T21:36:59;95738.66;;;4.38;100.00
32747;BME280;19118;50.860;13.662;2024-02-26T21:42:00;95748.63;;;4.28;100.00
32747;BME280;19118;50.860;13.662;2024-02-26T21:47:00;95743.78;;;4.25;100.00
32747;BME280;19118;50.860;13.662;2024-02-26T21:52:03;95761.41;;;4.17;100.00
32747;BME280;19118;50.860;13.662;2024-02-26T21:57:03;95771.38;;;4.06;100.00
32747;BME280;19118;50.860;13.662;2024-02-26T22:02:04;95777.41;;;4.07;100.00
32747;BME280;19118;50.860;13.662;2024-02-26T22:07:04;95782.03;;;4.05;100.00
32747;BME280;19118;50.860;13.662;2024-02-26T22:12:05;95782.50;;;4.08;100.00
32747;BME280;19118;50.860;13.662;2024-02-26T22:17:06;95782.28;;;4.10;100.00
32747;BME280;19118;50.860;13.662;2024-02-26T22:22:06;95780.03;;;4.28;100.00
32747;BME280;19118;50.860;13.662;2024-02-26T22:27:06;95786.25;;;4.49;100.00
32747;BME280;19118;50.860;13.662;2024-02-26T22:32:06;95789.44;;;4.72;100.00
32747;BME280;19118;50.860;13.662;2024-02-26T22:37:07;95793.34;;;4.83;100.00
32747;BME280;19118;50.860;13.662;2024-02-26T22:42:07;95774.88;;;4.97;100.00
32747;BME280;19118;50.860;13.662;2024-02-26T22:47:07;95798.31;;;5.06;100.00
32747;BME280;19118;50.860;13.662;2024-02-26T22:52:08;95795.56;;;5.14;100.00
32747;BME280;19118;50.860;13.662;2024-02-26T22:57:08;95792.75;;;5.15;100.00
32747;BME280;19118;50.860;13.662;2024-02-26T23:02:08;95796.56;;;5.19;100.00
32747;BME280;19118;50.860;13.662;2024-02-26T23:07:09;95807.06;;;5.19;100.00
32747;BME280;19118;50.860;13.662;2024-02-26T23:12:09;95816.72;;;5.19;100.00
32747;BME280;19118;50.860;13.662;2024-02-26T23:17:09;95821.84;;;5.27;100.00
32747;BME280;19118;50.860;13.662;2024-02-26T23:22:10;95812.34;;;5.26;100.00
32747;BME280;19118;50.860;13.662;2024-02-26T23:27:10;95802.31;;;5.36;100.00
32747;BME280;19118;50.860;13.662;2024-02-26T23:32:10;95814.22;;;5.39;100.00
32747;BME280;19118;50.860;13.662;2024-02-26T23:37:11;95818.25;;;5.41;100.00
32747;BME280;19118;50.860;13.662;2024-02-26T23:42:11;95815.09;;;5.46;100.00
32747;BME280;19118;50.860;13.662;2024-02-26T23:47:12;95811.47;;;5.53;100.00
32747;BME280;19118;50.860;13.662;2024-02-26T23:52:12;95806.31;;;5.67;100.00
32747;BME280;19118;50.860;13.662;2024-02-26T23:57:12;95803.06;;;5.71;100.00
